Flugplatz Essen Mulheim

Für EDLE sind keine METAR/TAF Berichte vorhanden.
Es werden die Flugwettermeldungen vom Flugplatz Düsseldorf International in 17 km Entfernung angezeigt.

Bericht für EDDL

vom 31.05. um 03:20 UTC

Wind 5 kt aus 50°

Sichtweite 10 km oder mehr

gute Sicht, keine Wolken < 5000 ft, keine CB, keine Wettererscheinungen (CAVOK)

Temperatur 10.0°C

Taupunkt 5.0°C

Luftfeuchtigkeit 71%

Luftdruck 1022 hPa

keine wesentliche Wetteränderung innerhalb den nächsten 2 Stunden zu erwarten

EDDL 310320Z 05005KT CAVOK 10/05 Q1022 NOSIG

Prognose für EDDL

vom 30.05. um 23:00 UTC

Zwischen 00:00 UTC und 05:00 UTC

Wind 5 kt aus 50°

Sichtweite 10 km oder mehr

keine signifikanten Wettererscheinungen

keine Wolken


Zwischen 05:00 und 08:00 UTC übergehend zu

Wind 12 kt aus 50°

Sichtweite 10 km oder mehr

keine signifikanten Wettererscheinungen

keine Wolken


Zwischen 10:00 UTC und 15:00 UTC zeitweise mit einer Wahrscheinlichkeit von 30%

Wind 15 kt aus 50° in Böen 25 kt


Zwischen 18:00 und 21:00 UTC übergehend zu

Wind 5 kt aus 40°

Sichtweite 10 km oder mehr

keine signifikanten Wettererscheinungen

keine Wolken

TAF EDDL 302300Z 3100/0106 05005KT CAVOK BECMG 3105/3108 05012KT PROB30 TEMPO 3110/3115 05015G25KT BECMG 3118/3121 04005KT
Impressum